createdAt,value
2023-01-21T00:01:09.208Z,1.79
2023-01-21T00:03:37.366Z,1.87
2023-01-21T00:06:05.548Z,1.96
2023-01-21T00:08:33.557Z,1.93
2023-01-21T00:11:08.367Z,1.93
2023-01-21T00:13:36.662Z,1.97
2023-01-21T00:16:05.275Z,1.96
2023-01-21T00:18:33.629Z,1.81
2023-01-21T00:21:01.504Z,1.78
2023-01-21T00:23:29.466Z,1.67
2023-01-21T00:25:58.255Z,1.62
2023-01-21T00:28:28.067Z,1.58
2023-01-21T00:31:03.342Z,1.51
2023-01-21T00:33:31.995Z,1.50
2023-01-21T00:36:01.193Z,1.43
2023-01-21T00:38:29.776Z,1.38
2023-01-21T00:41:04.555Z,1.29
2023-01-21T00:43:33.192Z,1.32
2023-01-21T00:46:01.231Z,1.35
2023-01-21T00:48:29.579Z,1.30
2023-01-21T00:51:00.846Z,1.17
2023-01-21T00:53:33.561Z,1.16
2023-01-21T00:56:02.274Z,1.14
2023-01-21T00:58:31.045Z,1.12
2023-01-21T01:01:03.925Z,1.15
2023-01-21T01:03:32.508Z,1.05
2023-01-21T01:06:04.691Z,0.95
2023-01-21T01:08:33.064Z,0.89
2023-01-21T01:11:01.389Z,0.92
2023-01-21T01:13:29.337Z,0.92
2023-01-21T01:15:58.949Z,0.82
2023-01-21T01:18:27.707Z,0.79
2023-01-21T01:20:56.092Z,0.75
2023-01-21T01:23:24.658Z,0.80
2023-01-21T01:26:00.184Z,0.82
2023-01-21T01:28:28.629Z,0.89
2023-01-21T01:30:56.831Z,0.92
2023-01-21T01:33:25.961Z,0.83
2023-01-21T01:35:53.939Z,0.86
2023-01-21T01:38:23.173Z,0.93
2023-01-21T01:40:52.675Z,0.94
2023-01-21T01:43:25.309Z,0.97
2023-01-21T01:45:53.891Z,0.92
2023-01-21T01:48:27.907Z,0.90
2023-01-21T01:50:57.292Z,0.91
2023-01-21T01:53:25.693Z,0.93
2023-01-21T01:55:53.968Z,0.88
2023-01-21T01:58:22.758Z,0.81
2023-01-21T02:00:50.628Z,0.85
2023-01-21T02:03:37.238Z,0.79
2023-01-21T02:06:05.413Z,0.78
2023-01-21T02:08:34.589Z,0.78
2023-01-21T02:11:03.599Z,0.82
2023-01-21T02:13:33.347Z,0.85
2023-01-21T02:16:13.710Z,0.85
2023-01-21T02:18:44.610Z,0.89
2023-01-21T02:21:18.203Z,0.92
2023-01-21T02:24:01.123Z,0.99
2023-01-21T02:26:47.936Z,1.05
2023-01-21T02:29:18.875Z,1.11
2023-01-21T02:31:46.947Z,1.17
2023-01-21T02:34:21.061Z,1.22
2023-01-21T02:36:51.999Z,1.30
2023-01-21T02:39:34.506Z,1.37
2023-01-21T02:42:05.154Z,1.44
2023-01-21T02:44:39.171Z,1.50
2023-01-21T02:47:27.395Z,1.49
2023-01-21T02:49:55.375Z,1.50
2023-01-21T02:52:24.289Z,1.52
2023-01-21T02:54:56.937Z,1.52
2023-01-21T02:57:35.971Z,1.51
2023-01-21T03:00:06.785Z,1.55
2023-01-21T03:02:45.450Z,1.58
2023-01-21T03:05:19.130Z,1.64
2023-01-21T03:07:49.046Z,1.65
2023-01-21T03:10:30.932Z,1.66
2023-01-21T03:13:04.230Z,1.65
2023-01-21T03:15:54.774Z,1.63
2023-01-21T03:18:45.949Z,1.58
2023-01-21T03:21:19.650Z,1.58
2023-01-21T03:23:50.074Z,1.60
2023-01-21T03:26:24.153Z,1.64
2023-01-21T03:28:54.510Z,1.69
2023-01-21T03:31:28.042Z,1.75
2023-01-21T03:33:57.109Z,1.81
2023-01-21T03:36:45.279Z,1.85
2023-01-21T03:39:21.210Z,1.88
2023-01-21T03:41:49.283Z,1.89
2023-01-21T03:44:17.249Z,1.91
2023-01-21T03:46:55.973Z,1.92
2023-01-21T03:49:32.299Z,1.94
2023-01-21T03:52:01.837Z,1.90
2023-01-21T03:54:29.909Z,1.88
2023-01-21T03:56:57.780Z,1.90
2023-01-21T03:59:25.649Z,1.91
2023-01-21T04:01:53.661Z,1.92
2023-01-21T04:04:21.685Z,1.94
2023-01-21T04:06:49.553Z,1.95
2023-01-21T04:09:17.423Z,1.96
2023-01-21T04:11:45.389Z,1.97
2023-01-21T04:14:13.466Z,1.99
2023-01-21T04:16:41.471Z,2.00
2023-01-21T04:19:09.510Z,1.99
2023-01-21T04:21:37.347Z,1.98
2023-01-21T04:24:05.549Z,1.98
2023-01-21T04:26:33.515Z,1.98
2023-01-21T04:29:01.483Z,1.98
2023-01-21T04:31:29.486Z,1.99
2023-01-21T04:33:57.422Z,2.00
2023-01-21T04:36:25.290Z,1.99
2023-01-21T04:38:53.380Z,1.92
2023-01-21T04:41:22.957Z,1.86
2023-01-21T04:43:52.579Z,1.89
2023-01-21T04:46:20.748Z,1.88
2023-01-21T04:48:48.725Z,1.91
2023-01-21T04:51:16.775Z,1.93
2023-01-21T04:53:44.713Z,1.96
2023-01-21T04:56:12.628Z,2.01
2023-01-21T04:58:40.530Z,2.08
2023-01-21T05:01:08.483Z,2.16
2023-01-21T05:03:36.435Z,2.23
2023-01-21T05:06:04.492Z,2.34
2023-01-21T05:08:32.496Z,2.41
2023-01-21T05:11:00.452Z,2.50
2023-01-21T05:13:28.433Z,2.60
2023-01-21T05:15:56.503Z,2.68
2023-01-21T05:18:24.576Z,2.77
2023-01-21T05:20:52.532Z,2.84
2023-01-21T05:23:20.603Z,2.91
2023-01-21T05:25:51.510Z,2.94
2023-01-21T05:28:19.507Z,2.91
2023-01-21T05:30:47.391Z,2.89
2023-01-21T05:33:15.347Z,2.87
2023-01-21T05:35:43.425Z,2.82
2023-01-21T05:38:11.389Z,2.78
2023-01-21T05:40:39.354Z,2.74
2023-01-21T05:43:07.189Z,2.71
2023-01-21T05:45:35.189Z,2.65
2023-01-21T05:48:03.364Z,2.58
2023-01-21T05:50:32.770Z,2.51
2023-01-21T05:53:00.636Z,2.44
2023-01-21T05:55:28.602Z,2.38
2023-01-21T05:57:57.185Z,2.33
2023-01-21T06:00:25.163Z,2.23
2023-01-21T06:02:53.241Z,2.11
2023-01-21T06:05:21.505Z,2.02
2023-01-21T06:07:50.298Z,1.92
2023-01-21T06:10:18.500Z,1.87
2023-01-21T06:12:49.619Z,1.85
2023-01-21T06:15:17.997Z,1.82
2023-01-21T06:17:47.404Z,1.76
2023-01-21T06:20:15.861Z,1.72
2023-01-21T06:22:43.958Z,1.67
2023-01-21T06:25:11.921Z,1.65
2023-01-21T06:27:39.895Z,1.65
2023-01-21T06:30:09.291Z,1.64
2023-01-21T06:32:37.498Z,1.64
2023-01-21T06:35:05.638Z,1.60
2023-01-21T06:37:33.621Z,1.58
2023-01-21T06:40:01.931Z,1.58
2023-01-21T06:42:30.059Z,1.63
2023-01-21T06:44:58.131Z,1.67
2023-01-21T06:47:26.206Z,1.70
2023-01-21T06:49:54.173Z,1.76
2023-01-21T06:52:22.141Z,1.82
2023-01-21T06:54:50.117Z,1.87
2023-01-21T06:57:18.597Z,1.91
2023-01-21T06:59:46.566Z,1.96
2023-01-21T07:02:14.434Z,2.00
2023-01-21T07:04:42.400Z,2.04
2023-01-21T07:07:10.579Z,2.08
2023-01-21T07:09:38.546Z,2.15
2023-01-21T07:12:06.516Z,2.23
2023-01-21T07:14:34.399Z,2.31
2023-01-21T07:17:02.588Z,2.41
2023-01-21T07:19:30.748Z,2.51
2023-01-21T07:21:58.709Z,2.66
2023-01-21T07:24:26.779Z,2.76
2023-01-21T07:26:56.950Z,2.85
2023-01-21T07:29:25.065Z,2.90
2023-01-21T07:31:53.066Z,2.97
2023-01-21T07:34:21.029Z,3.02
2023-01-21T07:36:49.273Z,3.03
2023-01-21T07:39:17.173Z,3.05
2023-01-21T07:41:45.125Z,3.09
2023-01-21T07:44:13.297Z,3.16
2023-01-21T07:46:41.193Z,3.23
2023-01-21T07:49:09.940Z,3.35
2023-01-21T07:51:37.916Z,3.49
2023-01-21T07:54:05.885Z,3.62
2023-01-21T07:56:33.732Z,3.73
2023-01-21T07:59:01.584Z,3.84
2023-01-21T08:01:31.488Z,3.93
2023-01-21T08:04:00.013Z,4.05
2023-01-21T08:06:27.983Z,4.24
2023-01-21T08:08:55.949Z,4.77
2023-01-21T08:11:23.815Z,5.42
2023-01-21T08:13:51.798Z,6.01
2023-01-21T08:16:19.894Z,6.53
2023-01-21T08:18:47.834Z,7.13
2023-01-21T08:21:15.810Z,7.72
2023-01-21T08:23:43.807Z,8.27
2023-01-21T08:26:11.633Z,8.77
2023-01-21T08:28:40.219Z,9.28
2023-01-21T08:31:10.012Z,9.78
2023-01-21T08:33:38.464Z,10.23
2023-01-21T08:36:07.989Z,10.55
2023-01-21T08:38:36.193Z,11.06
2023-01-21T08:41:04.471Z,11.55
2023-01-21T08:43:32.749Z,11.85
2023-01-21T08:46:01.768Z,11.47
2023-01-21T08:48:30.219Z,11.23
2023-01-21T08:50:59.570Z,10.91
2023-01-21T08:53:27.796Z,10.83
2023-01-21T08:56:02.848Z,11.17
2023-01-21T08:58:31.524Z,11.63
2023-01-21T09:01:00.015Z,12.09
2023-01-21T09:03:30.025Z,12.56
2023-01-21T09:06:00.552Z,12.90
2023-01-21T09:08:28.952Z,13.30
2023-01-21T09:11:03.813Z,13.70
2023-01-21T09:13:33.679Z,14.07
2023-01-21T09:16:01.741Z,14.46
2023-01-21T09:18:29.720Z,14.68
2023-01-21T09:21:01.984Z,14.92
2023-01-21T09:23:32.719Z,15.38
2023-01-21T09:26:04.069Z,15.70
2023-01-21T09:28:33.268Z,16.05
2023-01-21T09:31:02.788Z,16.23
2023-01-21T09:33:31.662Z,16.25
2023-01-21T09:36:00.870Z,16.53
2023-01-21T09:38:29.540Z,16.90
2023-01-21T09:41:02.699Z,17.27
2023-01-21T09:43:37.099Z,17.45
2023-01-21T09:46:09.390Z,17.29
2023-01-21T09:48:41.681Z,17.21
2023-01-21T09:51:22.875Z,17.03
2023-01-21T09:53:53.194Z,16.80
2023-01-21T09:56:31.208Z,16.88
2023-01-21T09:59:06.665Z,17.15
2023-01-21T10:01:37.079Z,17.04
2023-01-21T10:04:23.701Z,16.30
2023-01-21T10:06:55.036Z,15.66
2023-01-21T10:09:23.005Z,15.07
2023-01-21T10:11:50.864Z,14.66
2023-01-21T10:14:31.024Z,14.54
2023-01-21T10:17:17.728Z,14.67
2023-01-21T10:19:49.453Z,15.05
2023-01-21T10:22:24.216Z,15.00
2023-01-21T10:24:55.979Z,15.36
2023-01-21T10:27:25.186Z,15.41
2023-01-21T10:29:55.785Z,15.28
2023-01-21T10:32:27.493Z,14.90
2023-01-21T10:34:57.386Z,14.36
2023-01-21T10:37:28.734Z,14.09
2023-01-21T10:39:56.696Z,13.76
2023-01-21T10:42:30.807Z,13.37
2023-01-21T10:45:08.395Z,13.26
2023-01-21T10:47:41.949Z,13.16
2023-01-21T10:50:13.067Z,13.65
2023-01-21T10:53:03.959Z,14.26
2023-01-21T10:55:34.693Z,14.75
2023-01-21T10:58:05.114Z,15.14
2023-01-21T11:00:36.376Z,15.36
2023-01-21T11:03:11.809Z,15.54
2023-01-21T11:05:40.384Z,15.84
2023-01-21T11:08:13.891Z,15.99
2023-01-21T11:10:41.864Z,15.99
2023-01-21T11:13:13.612Z,16.24
2023-01-21T11:15:52.901Z,16.67
2023-01-21T11:18:26.957Z,16.93
2023-01-21T11:20:59.952Z,17.02
2023-01-21T11:23:32.422Z,17.01
2023-01-21T11:26:01.643Z,16.90
2023-01-21T11:28:33.276Z,16.79
2023-01-21T11:31:07.212Z,16.42
2023-01-21T11:33:35.587Z,15.95
2023-01-21T11:36:10.927Z,15.48
2023-01-21T11:38:39.081Z,15.24
2023-01-21T11:41:27.124Z,15.05
2023-01-21T11:43:56.012Z,15.13
2023-01-21T11:46:35.655Z,15.54
2023-01-21T11:49:06.631Z,15.68
2023-01-21T11:51:35.290Z,15.83
2023-01-21T11:54:13.495Z,16.25
2023-01-21T11:57:00.197Z,17.14
2023-01-21T11:59:33.922Z,18.07
2023-01-21T12:02:08.160Z,18.85
2023-01-21T12:04:36.706Z,19.58
2023-01-21T12:07:05.598Z,20.32
2023-01-21T12:09:33.763Z,20.86
2023-01-21T12:12:23.848Z,21.26
2023-01-21T12:14:54.895Z,21.69
2023-01-21T12:17:41.377Z,22.11
2023-01-21T12:20:21.663Z,21.91
2023-01-21T12:22:49.848Z,21.58
2023-01-21T12:25:20.774Z,21.26
2023-01-21T12:27:48.865Z,21.29
2023-01-21T12:30:35.380Z,20.78
2023-01-21T12:33:16.737Z,20.22
2023-01-21T12:35:47.058Z,19.77
2023-01-21T12:38:21.278Z,19.83
2023-01-21T12:41:01.437Z,20.11
2023-01-21T12:43:35.843Z,20.27
2023-01-21T12:46:10.756Z,19.89
2023-01-21T12:48:43.259Z,19.44
2023-01-21T12:51:31.428Z,19.70
2023-01-21T12:54:04.390Z,20.33
2023-01-21T12:56:35.116Z,21.03
2023-01-21T12:59:09.026Z,21.66
2023-01-21T13:01:48.597Z,22.13
2023-01-21T13:04:19.714Z,22.61
2023-01-21T13:06:54.666Z,22.92
2023-01-21T13:09:22.617Z,23.20
2023-01-21T13:11:58.070Z,23.46
2023-01-21T13:14:39.069Z,23.52
2023-01-21T13:17:13.340Z,23.17
2023-01-21T13:19:41.317Z,23.13
2023-01-21T13:22:14.923Z,23.32
2023-01-21T13:24:54.870Z,23.62
2023-01-21T13:27:27.144Z,23.57
2023-01-21T13:30:18.511Z,23.28
2023-01-21T13:33:04.961Z,22.72
2023-01-21T13:36:05.291Z,22.10
2023-01-21T13:38:42.370Z,21.05
2023-01-21T13:41:13.115Z,20.14
2023-01-21T13:43:59.916Z,19.19
2023-01-21T13:46:27.787Z,18.35
2023-01-21T13:49:04.974Z,17.49
2023-01-21T13:51:32.840Z,16.92
2023-01-21T13:54:00.875Z,16.52
2023-01-21T13:56:34.621Z,16.06
2023-01-21T13:59:11.727Z,15.56
2023-01-21T14:01:45.528Z,14.95
2023-01-21T14:04:18.691Z,14.51
2023-01-21T14:06:57.109Z,14.16
2023-01-21T14:09:27.645Z,14.04
2023-01-21T14:12:07.694Z,14.09
2023-01-21T14:14:53.957Z,13.95
2023-01-21T14:17:27.660Z,13.75
2023-01-21T14:20:05.816Z,13.50
2023-01-21T14:22:52.925Z,13.07
2023-01-21T14:25:20.888Z,12.60
2023-01-21T14:27:51.643Z,12.18
2023-01-21T14:30:31.387Z,11.85
2023-01-21T14:33:20.195Z,11.50
2023-01-21T14:35:53.829Z,11.20
2023-01-21T14:38:36.874Z,10.91
2023-01-21T14:41:09.326Z,10.68
2023-01-21T14:43:37.983Z,10.41
2023-01-21T14:46:29.029Z,10.22
2023-01-21T14:48:58.843Z,9.98
2023-01-21T14:51:29.135Z,9.78
2023-01-21T14:54:23.660Z,9.55
2023-01-21T14:56:52.334Z,9.37
2023-01-21T14:59:25.736Z,9.22
2023-01-21T15:01:58.758Z,9.06
2023-01-21T15:04:37.545Z,8.94
2023-01-21T15:07:13.297Z,8.81
2023-01-21T15:09:47.232Z,8.71
2023-01-21T15:12:21.806Z,8.63
2023-01-21T15:14:50.207Z,8.50
2023-01-21T15:17:37.235Z,8.34
2023-01-21T15:20:25.306Z,8.20
2023-01-21T15:23:17.507Z,8.05
2023-01-21T15:26:03.601Z,7.90
2023-01-21T15:28:44.582Z,7.77
2023-01-21T15:31:38.654Z,7.63
2023-01-21T15:34:12.254Z,7.51
2023-01-21T15:36:57.172Z,7.41
2023-01-21T15:39:32.685Z,7.32
2023-01-21T15:42:12.822Z,7.23
2023-01-21T15:44:49.804Z,7.15
2023-01-21T15:47:17.883Z,7.07
2023-01-21T15:49:48.878Z,7.03
2023-01-21T15:52:25.790Z,6.94
2023-01-21T15:55:16.842Z,6.83
2023-01-21T15:57:55.435Z,6.70
2023-01-21T16:00:29.797Z,6.61
2023-01-21T16:02:58.173Z,6.53
2023-01-21T16:05:31.312Z,6.45
2023-01-21T16:08:18.841Z,6.37
2023-01-21T16:10:46.721Z,6.33
2023-01-21T16:13:20.868Z,6.28
2023-01-21T16:16:07.520Z,6.25
2023-01-21T16:18:55.276Z,6.17
2023-01-21T16:21:25.186Z,6.07
2023-01-21T16:23:55.702Z,5.99
2023-01-21T16:26:24.902Z,5.94
2023-01-21T16:28:53.493Z,5.83
2023-01-21T16:31:21.776Z,5.77
2023-01-21T16:33:51.985Z,5.73
2023-01-21T16:36:20.688Z,5.69
2023-01-21T16:38:48.610Z,5.66
2023-01-21T16:41:23.906Z,5.63
2023-01-21T16:43:57.085Z,5.60
2023-01-21T16:46:27.205Z,5.54
2023-01-21T16:49:00.498Z,5.51
2023-01-21T16:51:33.474Z,5.47
2023-01-21T16:54:19.684Z,5.41
2023-01-21T16:57:07.799Z,5.32
2023-01-21T16:59:39.991Z,5.26
2023-01-21T17:02:19.672Z,5.22
2023-01-21T17:04:47.915Z,5.19
2023-01-21T17:07:17.202Z,5.14
2023-01-21T17:09:45.193Z,5.07
2023-01-21T17:12:22.770Z,5.03
2023-01-21T17:14:59.541Z,4.97
2023-01-21T17:17:30.382Z,4.94
2023-01-21T17:19:58.965Z,4.91
2023-01-21T17:22:29.042Z,4.85
2023-01-21T17:24:59.919Z,4.81
2023-01-21T17:27:28.399Z,4.79
2023-01-21T17:30:16.233Z,4.77
2023-01-21T17:32:51.810Z,4.75
2023-01-21T17:35:23.056Z,4.73
2023-01-21T17:38:01.450Z,4.69
2023-01-21T17:40:58.715Z,4.67
2023-01-21T17:43:28.202Z,4.63
2023-01-21T17:45:57.144Z,4.60
2023-01-21T17:48:33.074Z,4.57
2023-01-21T17:51:17.969Z,4.53
2023-01-21T17:53:52.728Z,4.47
2023-01-21T17:56:39.225Z,4.45
2023-01-21T17:59:34.305Z,4.43
2023-01-21T18:02:03.219Z,4.39
2023-01-21T18:04:31.217Z,4.35
2023-01-21T18:06:59.186Z,4.33
2023-01-21T18:09:28.490Z,4.31
2023-01-21T18:11:57.525Z,4.27
2023-01-21T18:14:25.863Z,4.24
2023-01-21T18:16:54.317Z,4.25
2023-01-21T18:19:40.175Z,4.25
2023-01-21T18:22:08.216Z,4.22
2023-01-21T18:24:37.507Z,4.18
2023-01-21T18:27:05.469Z,4.16
2023-01-21T18:29:33.447Z,4.12
2023-01-21T18:32:01.586Z,4.04
2023-01-21T18:34:29.751Z,4.01
2023-01-21T18:36:58.069Z,3.94
2023-01-21T18:39:26.082Z,3.89
2023-01-21T18:41:54.007Z,3.84
2023-01-21T18:44:22.177Z,3.78
2023-01-21T18:46:50.161Z,3.73
2023-01-21T18:49:19.765Z,3.72
2023-01-21T18:51:47.722Z,3.71
2023-01-21T18:54:16.718Z,3.70
2023-01-21T18:56:45.817Z,3.70
2023-01-21T18:59:15.111Z,3.72
2023-01-21T19:01:43.655Z,3.71
2023-01-21T19:04:16.097Z,3.70
2023-01-21T19:06:44.447Z,3.70
2023-01-21T19:09:23.065Z,3.69
2023-01-21T19:11:51.655Z,3.64
2023-01-21T19:14:19.741Z,3.61
2023-01-21T19:16:47.692Z,3.57
2023-01-21T19:19:16.906Z,3.55
2023-01-21T19:21:44.965Z,3.51
2023-01-21T19:24:13.046Z,3.48
2023-01-21T19:26:41.116Z,3.45
2023-01-21T19:29:13.693Z,3.43
2023-01-21T19:31:41.710Z,3.41
2023-01-21T19:34:10.456Z,3.36
2023-01-21T19:36:39.678Z,3.33
2023-01-21T19:39:14.885Z,3.31
2023-01-21T19:41:42.855Z,3.27
2023-01-21T19:44:10.920Z,3.24
2023-01-21T19:46:39.063Z,3.21
2023-01-21T19:49:12.720Z,3.17
2023-01-21T19:51:41.387Z,3.16
2023-01-21T19:54:10.585Z,3.12
2023-01-21T19:56:38.561Z,3.10
2023-01-21T19:59:06.530Z,3.07
2023-01-21T20:01:34.518Z,3.01
2023-01-21T20:04:02.363Z,2.99
2023-01-21T20:06:34.634Z,2.97
2023-01-21T20:09:02.617Z,2.96
2023-01-21T20:11:30.567Z,2.93
2023-01-21T20:13:58.403Z,2.91
2023-01-21T20:16:27.079Z,2.90
2023-01-21T20:18:56.480Z,2.88
2023-01-21T20:21:24.468Z,2.86
2023-01-21T20:23:52.325Z,2.83
2023-01-21T20:26:26.105Z,2.81
2023-01-21T20:28:54.674Z,2.78
2023-01-21T20:31:22.939Z,2.72
2023-01-21T20:33:51.311Z,2.71
2023-01-21T20:36:21.423Z,2.69
2023-01-21T20:38:49.500Z,2.68
2023-01-21T20:41:17.467Z,2.67
2023-01-21T20:43:45.527Z,2.65
2023-01-21T20:46:25.688Z,2.65
2023-01-21T20:48:53.759Z,2.68
2023-01-21T20:51:22.051Z,2.69
2023-01-21T20:53:50.015Z,2.72
2023-01-21T20:56:28.226Z,2.77
2023-01-21T20:58:56.196Z,2.80
2023-01-21T21:01:25.094Z,2.82
2023-01-21T21:03:53.162Z,2.82
2023-01-21T21:06:22.554Z,2.86
2023-01-21T21:08:50.485Z,2.89
2023-01-21T21:11:19.028Z,2.94
2023-01-21T21:13:48.540Z,2.99
2023-01-21T21:16:16.452Z,3.04
2023-01-21T21:18:44.551Z,3.12
2023-01-21T21:21:13.006Z,3.18
2023-01-21T21:23:41.643Z,3.25
2023-01-21T21:26:23.104Z,3.29
2023-01-21T21:28:54.988Z,3.28
2023-01-21T21:31:23.907Z,3.28
2023-01-21T21:33:52.235Z,3.28
2023-01-21T21:36:21.368Z,3.30
2023-01-21T21:38:49.612Z,3.26
2023-01-21T21:41:39.797Z,3.24
2023-01-21T21:44:08.550Z,3.19
2023-01-21T21:46:55.707Z,3.16
2023-01-21T21:49:23.755Z,3.15
2023-01-21T21:51:51.867Z,3.12
2023-01-21T21:54:20.024Z,3.05
2023-01-21T21:56:48.520Z,3.02
2023-01-21T21:59:16.470Z,3.00
2023-01-21T22:01:44.647Z,2.95
2023-01-21T22:04:12.517Z,2.90
2023-01-21T22:06:40.378Z,2.89
2023-01-21T22:09:08.450Z,2.87
2023-01-21T22:11:36.631Z,2.85
2023-01-21T22:14:04.785Z,2.84
2023-01-21T22:16:33.126Z,2.83
2023-01-21T22:19:01.573Z,2.81
2023-01-21T22:21:34.288Z,2.77
2023-01-21T22:24:03.130Z,2.71
2023-01-21T22:26:31.106Z,2.68
2023-01-21T22:28:59.065Z,2.64
2023-01-21T22:31:28.687Z,2.60
2023-01-21T22:33:57.823Z,2.58
2023-01-21T22:36:27.479Z,2.58
2023-01-21T22:38:55.768Z,2.57
2023-01-21T22:41:24.339Z,2.56
2023-01-21T22:43:53.404Z,2.55
2023-01-21T22:46:23.502Z,2.54
2023-01-21T22:48:53.137Z,2.53
2023-01-21T22:51:23.197Z,2.50
2023-01-21T22:53:52.260Z,2.49
2023-01-21T22:56:25.316Z,2.46
2023-01-21T22:58:59.841Z,2.44
2023-01-21T23:01:31.587Z,2.41
2023-01-21T23:04:00.256Z,2.40
2023-01-21T23:06:28.172Z,2.38
2023-01-21T23:08:56.104Z,2.38
2023-01-21T23:11:24.144Z,2.37
2023-01-21T23:13:54.469Z,2.37
2023-01-21T23:16:22.428Z,2.36
2023-01-21T23:18:50.276Z,2.35
2023-01-21T23:21:19.905Z,2.36
2023-01-21T23:23:48.296Z,2.34
2023-01-21T23:26:16.567Z,2.35
2023-01-21T23:28:44.638Z,2.34
2023-01-21T23:31:14.115Z,2.33
2023-01-21T23:33:42.414Z,2.31
2023-01-21T23:36:13.170Z,2.30
2023-01-21T23:38:42.248Z,2.30
2023-01-21T23:41:11.862Z,2.31
2023-01-21T23:43:40.016Z,2.32
2023-01-21T23:46:09.390Z,2.33
2023-01-21T23:48:37.301Z,2.33
2023-01-21T23:51:06.333Z,2.33
2023-01-21T23:53:34.367Z,2.34
2023-01-21T23:56:03.361Z,2.34
2023-01-21T23:58:31.336Z,2.34
